Аэропорт: Кызылорда. Кызылорда

ICAO: UAOO

METAR:
2020-10-19 15:00:00
UAOO 191500Z 04004MPS CAVOK 15/M05 Q1020 NOSIG RMK QFE753/1005
METAR:
2020-10-19 14:00:00
TAF UAOO 191400Z 1915/1924 06004MPS CAVOK